sensor_id;sensor_type;location;lat;lon;timestamp;pressure;altitude;pressure_sealevel;temperature;humidity
8318;BME280;4196;48.926;8.964;2023-04-20T00:00:59;99063.19;;;0.45;100.00
8318;BME280;4196;48.926;8.964;2023-04-20T00:03:46;99013.00;;;-0.03;100.00
8318;BME280;4196;48.926;8.964;2023-04-20T00:06:33;99071.09;;;0.30;100.00
8318;BME280;4196;48.926;8.964;2023-04-20T00:09:19;99067.78;;;0.10;100.00
8318;BME280;4196;48.926;8.964;2023-04-20T00:12:05;99047.88;;;0.00;100.00
8318;BME280;4196;48.926;8.964;2023-04-20T00:14:52;99072.19;;;0.14;100.00
8318;BME280;4196;48.926;8.964;2023-04-20T00:17:39;99056.81;;;0.34;100.00
8318;BME280;4196;48.926;8.964;2023-04-20T00:20:25;99069.97;;;0.44;100.00
8318;BME280;4196;48.926;8.964;2023-04-20T00:23:12;99046.03;;;0.18;100.00
8318;BME280;4196;48.926;8.964;2023-04-20T00:25:58;99063.56;;;0.11;100.00
8318;BME280;4196;48.926;8.964;2023-04-20T00:28:45;99052.28;;;0.04;100.00
8318;BME280;4196;48.926;8.964;2023-04-20T00:31:31;99074.72;;;0.14;100.00
8318;BME280;4196;48.926;8.964;2023-04-20T00:34:18;99011.88;;;-0.32;100.00
8318;BME280;4196;48.926;8.964;2023-04-20T00:37:04;99034.66;;;-0.12;100.00
8318;BME280;4196;48.926;8.964;2023-04-20T00:39:51;99058.97;;;0.02;100.00
8318;BME280;4196;48.926;8.964;2023-04-20T00:42:38;99041.25;;;-0.17;100.00
8318;BME280;4196;48.926;8.964;2023-04-20T00:45:26;99046.81;;;-0.05;100.00
8318;BME280;4196;48.926;8.964;2023-04-20T00:48:13;98997.06;;;-0.19;100.00
8318;BME280;4196;48.926;8.964;2023-04-20T00:51:00;99000.03;;;-0.09;100.00
8318;BME280;4196;48.926;8.964;2023-04-20T00:53:47;99009.94;;;0.06;100.00
8318;BME280;4196;48.926;8.964;2023-04-20T00:56:34;98941.16;;;-0.40;100.00
8318;BME280;4196;48.926;8.964;2023-04-20T00:59:20;99029.94;;;-0.03;100.00
8318;BME280;4196;48.926;8.964;2023-04-20T01:02:07;99000.88;;;-0.31;100.00
8318;BME280;4196;48.926;8.964;2023-04-20T01:04:54;99007.63;;;-0.31;100.00
8318;BME280;4196;48.926;8.964;2023-04-20T01:07:41;98997.84;;;-0.43;100.00
8318;BME280;4196;48.926;8.964;2023-04-20T01:10:28;98987.03;;;-0.37;100.00
8318;BME280;4196;48.926;8.964;2023-04-20T01:13:14;98983.41;;;-0.44;100.00
8318;BME280;4196;48.926;8.964;2023-04-20T01:16:01;99006.78;;;-0.32;100.00
8318;BME280;4196;48.926;8.964;2023-04-20T01:18:49;99006.91;;;-0.29;100.00
8318;BME280;4196;48.926;8.964;2023-04-20T01:21:36;98966.84;;;-0.55;100.00
8318;BME280;4196;48.926;8.964;2023-04-20T01:24:23;98971.00;;;-0.57;100.00
8318;BME280;4196;48.926;8.964;2023-04-20T01:27:10;98962.19;;;-0.65;100.00
8318;BME280;4196;48.926;8.964;2023-04-20T01:29:57;98979.59;;;-0.33;100.00
8318;BME280;4196;48.926;8.964;2023-04-20T01:32:43;98946.16;;;-0.42;100.00
8318;BME280;4196;48.926;8.964;2023-04-20T01:35:30;98960.59;;;-0.41;100.00
8318;BME280;4196;48.926;8.964;2023-04-20T01:38:18;98950.44;;;-0.41;100.00
8318;BME280;4196;48.926;8.964;2023-04-20T01:41:06;98973.75;;;-0.30;100.00
8318;BME280;4196;48.926;8.964;2023-04-20T01:43:53;98893.00;;;-1.00;100.00
8318;BME280;4196;48.926;8.964;2023-04-20T01:46:39;98928.28;;;-0.87;100.00
8318;BME280;4196;48.926;8.964;2023-04-20T01:49:26;98976.78;;;-0.61;100.00
8318;BME280;4196;48.926;8.964;2023-04-20T01:52:13;98930.03;;;-1.07;100.00
8318;BME280;4196;48.926;8.964;2023-04-20T01:54:59;98930.41;;;-0.98;100.00
8318;BME280;4196;48.926;8.964;2023-04-20T01:57:46;98926.25;;;-0.95;100.00
8318;BME280;4196;48.926;8.964;2023-04-20T02:00:32;98906.53;;;-1.01;100.00
8318;BME280;4196;48.926;8.964;2023-04-20T02:03:19;98933.16;;;-0.70;100.00
8318;BME280;4196;48.926;8.964;2023-04-20T02:06:06;98916.28;;;-0.91;100.00
8318;BME280;4196;48.926;8.964;2023-04-20T02:08:52;98917.75;;;-0.96;100.00
8318;BME280;4196;48.926;8.964;2023-04-20T02:11:38;98933.25;;;-0.90;100.00
8318;BME280;4196;48.926;8.964;2023-04-20T02:14:25;98900.66;;;-1.21;100.00
8318;BME280;4196;48.926;8.964;2023-04-20T02:17:12;98948.38;;;-0.93;100.00
8318;BME280;4196;48.926;8.964;2023-04-20T02:19:59;98926.81;;;-1.03;100.00
8318;BME280;4196;48.926;8.964;2023-04-20T02:22:46;98944.38;;;-1.07;100.00
8318;BME280;4196;48.926;8.964;2023-04-20T02:25:33;98889.06;;;-1.35;100.00
8318;BME280;4196;48.926;8.964;2023-04-20T02:28:19;98893.44;;;-1.31;100.00
8318;BME280;4196;48.926;8.964;2023-04-20T02:31:05;98895.13;;;-1.32;100.00
8318;BME280;4196;48.926;8.964;2023-04-20T02:33:52;98897.81;;;-1.29;100.00
8318;BME280;4196;48.926;8.964;2023-04-20T02:36:38;98861.78;;;-1.39;100.00
8318;BME280;4196;48.926;8.964;2023-04-20T02:39:25;98925.28;;;-1.18;100.00
8318;BME280;4196;48.926;8.964;2023-04-20T02:42:13;98901.88;;;-1.32;100.00
8318;BME280;4196;48.926;8.964;2023-04-20T02:45:01;98913.91;;;-1.28;100.00
8318;BME280;4196;48.926;8.964;2023-04-20T02:47:48;98885.88;;;-1.51;100.00
8318;BME280;4196;48.926;8.964;2023-04-20T02:50:35;98919.84;;;-1.28;100.00
8318;BME280;4196;48.926;8.964;2023-04-20T02:53:31;98877.50;;;-1.48;100.00
8318;BME280;4196;48.926;8.964;2023-04-20T02:56:38;98902.63;;;-1.35;100.00
8318;BME280;4196;48.926;8.964;2023-04-20T02:59:28;98884.41;;;-1.25;100.00
8318;BME280;4196;48.926;8.964;2023-04-20T03:02:30;98844.72;;;-1.63;100.00
8318;BME280;4196;48.926;8.964;2023-04-20T03:05:18;98840.81;;;-1.76;100.00
8318;BME280;4196;48.926;8.964;2023-04-20T03:08:05;98878.31;;;-1.49;100.00
8318;BME280;4196;48.926;8.964;2023-04-20T03:10:52;98867.78;;;-1.58;100.00
8318;BME280;4196;48.926;8.964;2023-04-20T03:13:39;98876.19;;;-1.59;100.00
8318;BME280;4196;48.926;8.964;2023-04-20T03:16:26;98835.56;;;-1.80;100.00
8318;BME280;4196;48.926;8.964;2023-04-20T03:19:14;98866.19;;;-1.76;100.00
8318;BME280;4196;48.926;8.964;2023-04-20T03:22:01;98806.41;;;-2.09;100.00
8318;BME280;4196;48.926;8.964;2023-04-20T03:24:49;98860.59;;;-1.68;100.00
8318;BME280;4196;48.926;8.964;2023-04-20T03:27:58;98887.47;;;-1.53;100.00
8318;BME280;4196;48.926;8.964;2023-04-20T03:30:45;98870.31;;;-1.78;100.00
8318;BME280;4196;48.926;8.964;2023-04-20T03:33:34;98887.09;;;-1.41;100.00
8318;BME280;4196;48.926;8.964;2023-04-20T03:36:21;98875.81;;;-1.28;100.00
8318;BME280;4196;48.926;8.964;2023-04-20T03:39:07;98862.25;;;-1.29;100.00
8318;BME280;4196;48.926;8.964;2023-04-20T03:41:55;98832.84;;;-1.64;100.00
8318;BME280;4196;48.926;8.964;2023-04-20T03:44:42;98858.59;;;-1.76;100.00
8318;BME280;4196;48.926;8.964;2023-04-20T03:47:29;98834.16;;;-1.93;100.00
8318;BME280;4196;48.926;8.964;2023-04-20T03:50:16;98881.75;;;-1.68;100.00
8318;BME280;4196;48.926;8.964;2023-04-20T03:53:02;98864.94;;;-1.45;100.00
8318;BME280;4196;48.926;8.964;2023-04-20T03:55:49;98867.34;;;-1.48;100.00
8318;BME280;4196;48.926;8.964;2023-04-20T03:58:39;98892.28;;;-1.39;100.00
8318;BME280;4196;48.926;8.964;2023-04-20T04:01:36;98840.94;;;-1.73;100.00
8318;BME280;4196;48.926;8.964;2023-04-20T04:04:24;98858.03;;;-1.88;100.00
8318;BME280;4196;48.926;8.964;2023-04-20T04:07:12;98854.44;;;-1.93;100.00
8318;BME280;4196;48.926;8.964;2023-04-20T04:10:00;98861.00;;;-1.98;100.00
8318;BME280;4196;48.926;8.964;2023-04-20T04:12:48;98856.84;;;-1.96;100.00
8318;BME280;4196;48.926;8.964;2023-04-20T04:15:35;98848.31;;;-1.98;100.00
8318;BME280;4196;48.926;8.964;2023-04-20T04:18:30;98889.19;;;-1.73;100.00
8318;BME280;4196;48.926;8.964;2023-04-20T04:21:21;98861.53;;;-1.86;100.00
8318;BME280;4196;48.926;8.964;2023-04-20T04:24:13;98863.72;;;-1.93;100.00
8318;BME280;4196;48.926;8.964;2023-04-20T04:27:18;98855.16;;;-1.96;100.00
8318;BME280;4196;48.926;8.964;2023-04-20T04:30:13;98874.31;;;-1.63;100.00
8318;BME280;4196;48.926;8.964;2023-04-20T04:33:02;98852.97;;;-1.68;100.00
8318;BME280;4196;48.926;8.964;2023-04-20T04:35:52;98857.63;;;-1.78;100.00
8318;BME280;4196;48.926;8.964;2023-04-20T04:38:42;98801.78;;;-2.18;100.00
8318;BME280;4196;48.926;8.964;2023-04-20T04:41:31;98845.34;;;-1.88;100.00
8318;BME280;4196;48.926;8.964;2023-04-20T04:44:28;98860.47;;;-1.91;100.00
8318;BME280;4196;48.926;8.964;2023-04-20T04:47:18;98876.84;;;-1.63;100.00
8318;BME280;4196;48.926;8.964;2023-04-20T04:50:07;98834.91;;;-1.34;100.00
8318;BME280;4196;48.926;8.964;2023-04-20T04:52:55;98856.13;;;-0.69;100.00
8318;BME280;4196;48.926;8.964;2023-04-20T04:55:42;98834.97;;;-0.46;100.00
8318;BME280;4196;48.926;8.964;2023-04-20T04:58:28;98840.09;;;0.02;100.00
8318;BME280;4196;48.926;8.964;2023-04-20T05:01:14;98831.94;;;0.36;100.00
8318;BME280;4196;48.926;8.964;2023-04-20T05:04:01;98847.09;;;0.84;100.00
8318;BME280;4196;48.926;8.964;2023-04-20T05:06:47;98866.69;;;1.39;100.00
8318;BME280;4196;48.926;8.964;2023-04-20T05:09:34;98844.81;;;1.76;100.00
8318;BME280;4196;48.926;8.964;2023-04-20T05:12:20;98837.31;;;1.81;100.00
8318;BME280;4196;48.926;8.964;2023-04-20T05:15:07;98842.97;;;1.71;100.00
8318;BME280;4196;48.926;8.964;2023-04-20T05:17:54;98869.47;;;1.76;100.00
8318;BME280;4196;48.926;8.964;2023-04-20T05:20:40;98849.53;;;1.34;100.00
8318;BME280;4196;48.926;8.964;2023-04-20T05:23:26;98841.34;;;0.90;100.00
8318;BME280;4196;48.926;8.964;2023-04-20T05:26:12;98862.50;;;0.87;100.00
8318;BME280;4196;48.926;8.964;2023-04-20T05:28:59;98882.63;;;1.05;100.00
8318;BME280;4196;48.926;8.964;2023-04-20T05:31:45;98851.72;;;0.69;100.00
8318;BME280;4196;48.926;8.964;2023-04-20T05:34:32;98807.78;;;0.51;100.00
8318;BME280;4196;48.926;8.964;2023-04-20T05:37:19;98860.53;;;0.79;100.00
8318;BME280;4196;48.926;8.964;2023-04-20T05:40:06;98855.69;;;0.86;100.00
8318;BME280;4196;48.926;8.964;2023-04-20T05:42:53;98872.81;;;1.17;100.00
8318;BME280;4196;48.926;8.964;2023-04-20T05:45:39;98849.97;;;1.20;100.00
8318;BME280;4196;48.926;8.964;2023-04-20T05:48:26;98807.97;;;1.09;100.00
8318;BME280;4196;48.926;8.964;2023-04-20T05:51:15;98855.72;;;1.42;100.00
8318;BME280;4196;48.926;8.964;2023-04-20T05:54:02;98832.97;;;1.48;100.00
8318;BME280;4196;48.926;8.964;2023-04-20T05:56:49;98878.09;;;1.79;100.00
8318;BME280;4196;48.926;8.964;2023-04-20T05:59:35;98883.59;;;1.93;100.00
8318;BME280;4196;48.926;8.964;2023-04-20T06:02:21;98880.91;;;2.18;100.00
8318;BME280;4196;48.926;8.964;2023-04-20T06:05:09;98840.59;;;2.07;100.00
8318;BME280;4196;48.926;8.964;2023-04-20T06:07:56;98830.53;;;2.13;100.00
8318;BME280;4196;48.926;8.964;2023-04-20T06:10:42;98838.97;;;2.42;100.00
8318;BME280;4196;48.926;8.964;2023-04-20T06:13:28;98857.41;;;2.63;100.00
8318;BME280;4196;48.926;8.964;2023-04-20T06:16:15;98841.63;;;2.80;100.00
8318;BME280;4196;48.926;8.964;2023-04-20T06:19:02;98839.66;;;3.04;100.00
8318;BME280;4196;48.926;8.964;2023-04-20T06:21:49;98866.06;;;3.39;100.00
8318;BME280;4196;48.926;8.964;2023-04-20T06:24:35;98807.00;;;3.30;100.00
8318;BME280;4196;48.926;8.964;2023-04-20T06:27:23;98844.47;;;3.66;100.00
8318;BME280;4196;48.926;8.964;2023-04-20T06:30:10;98844.78;;;3.81;100.00
8318;BME280;4196;48.926;8.964;2023-04-20T06:32:57;98865.84;;;4.09;100.00
8318;BME280;4196;48.926;8.964;2023-04-20T06:35:43;98839.50;;;4.16;100.00
8318;BME280;4196;48.926;8.964;2023-04-20T06:38:30;98845.66;;;4.24;100.00
8318;BME280;4196;48.926;8.964;2023-04-20T06:41:17;98820.66;;;4.13;100.00
8318;BME280;4196;48.926;8.964;2023-04-20T06:44:04;98812.00;;;4.07;100.00
8318;BME280;4196;48.926;8.964;2023-04-20T06:46:51;98829.34;;;4.21;100.00
8318;BME280;4196;48.926;8.964;2023-04-20T06:49:37;98822.06;;;4.42;100.00
8318;BME280;4196;48.926;8.964;2023-04-20T06:52:26;98838.69;;;4.66;100.00
8318;BME280;4196;48.926;8.964;2023-04-20T06:55:13;98849.22;;;4.81;100.00
8318;BME280;4196;48.926;8.964;2023-04-20T06:57:59;98820.13;;;4.79;100.00
8318;BME280;4196;48.926;8.964;2023-04-20T07:00:45;98866.69;;;5.03;100.00
8318;BME280;4196;48.926;8.964;2023-04-20T07:03:32;98815.03;;;4.82;100.00
8318;BME280;4196;48.926;8.964;2023-04-20T07:06:19;98846.16;;;5.03;100.00
8318;BME280;4196;48.926;8.964;2023-04-20T07:09:05;98779.16;;;4.85;100.00
8318;BME280;4196;48.926;8.964;2023-04-20T07:11:53;98842.44;;;5.41;100.00
8318;BME280;4196;48.926;8.964;2023-04-20T07:14:41;98806.44;;;5.35;100.00
8318;BME280;4196;48.926;8.964;2023-04-20T07:17:28;98821.34;;;5.60;100.00
8318;BME280;4196;48.926;8.964;2023-04-20T07:20:15;98827.69;;;5.90;100.00
8318;BME280;4196;48.926;8.964;2023-04-20T07:23:01;98811.31;;;5.80;99.48
8318;BME280;4196;48.926;8.964;2023-04-20T07:25:47;98803.75;;;5.92;97.69
8318;BME280;4196;48.926;8.964;2023-04-20T07:28:33;98834.13;;;6.25;96.60
8318;BME280;4196;48.926;8.964;2023-04-20T07:31:20;98809.97;;;6.10;91.97
8318;BME280;4196;48.926;8.964;2023-04-20T07:34:07;98812.50;;;6.05;91.16
8318;BME280;4196;48.926;8.964;2023-04-20T07:36:54;98823.44;;;5.90;89.31
8318;BME280;4196;48.926;8.964;2023-04-20T07:39:40;98774.34;;;5.67;89.72
8318;BME280;4196;48.926;8.964;2023-04-20T07:42:28;98786.28;;;5.67;90.19
8318;BME280;4196;48.926;8.964;2023-04-20T07:45:15;98797.66;;;5.84;91.04
8318;BME280;4196;48.926;8.964;2023-04-20T07:48:01;98822.78;;;6.07;92.68
8318;BME280;4196;48.926;8.964;2023-04-20T07:50:48;98820.28;;;6.13;90.39
8318;BME280;4196;48.926;8.964;2023-04-20T07:53:34;98812.69;;;6.23;91.96
8318;BME280;4196;48.926;8.964;2023-04-20T07:56:20;98810.31;;;6.43;90.05
8318;BME280;4196;48.926;8.964;2023-04-20T07:59:07;98794.13;;;6.52;87.63
8318;BME280;4196;48.926;8.964;2023-04-20T08:01:58;98802.78;;;6.60;86.30
8318;BME280;4196;48.926;8.964;2023-04-20T08:04:46;98773.28;;;6.24;87.00
8318;BME280;4196;48.926;8.964;2023-04-20T08:07:35;98812.91;;;6.46;87.73
8318;BME280;4196;48.926;8.964;2023-04-20T08:10:21;98799.22;;;6.46;87.88
8318;BME280;4196;48.926;8.964;2023-04-20T08:13:08;98800.41;;;6.86;88.61
8318;BME280;4196;48.926;8.964;2023-04-20T08:15:54;98793.06;;;7.41;85.31
8318;BME280;4196;48.926;8.964;2023-04-20T08:18:41;98752.59;;;7.19;83.66
8318;BME280;4196;48.926;8.964;2023-04-20T08:21:27;98772.50;;;7.54;84.12
8318;BME280;4196;48.926;8.964;2023-04-20T08:24:14;98786.31;;;7.68;79.52
8318;BME280;4196;48.926;8.964;2023-04-20T08:27:00;98795.72;;;7.55;80.61
8318;BME280;4196;48.926;8.964;2023-04-20T08:29:47;98766.50;;;7.52;80.60
8318;BME280;4196;48.926;8.964;2023-04-20T08:32:33;98804.44;;;7.83;81.66
8318;BME280;4196;48.926;8.964;2023-04-20T08:35:20;98756.28;;;7.67;79.85
8318;BME280;4196;48.926;8.964;2023-04-20T08:38:06;98793.28;;;7.95;80.83
8318;BME280;4196;48.926;8.964;2023-04-20T08:40:53;98789.06;;;8.08;81.63
8318;BME280;4196;48.926;8.964;2023-04-20T08:43:39;98766.81;;;8.46;81.86
8318;BME280;4196;48.926;8.964;2023-04-20T08:46:26;98756.50;;;8.80;76.27
8318;BME280;4196;48.926;8.964;2023-04-20T08:49:18;98778.84;;;9.12;76.70
8318;BME280;4196;48.926;8.964;2023-04-20T08:52:05;98748.78;;;8.80;73.30
8318;BME280;4196;48.926;8.964;2023-04-20T08:54:52;98760.75;;;9.09;72.57
8318;BME280;4196;48.926;8.964;2023-04-20T08:57:43;98760.72;;;9.27;75.00
8318;BME280;4196;48.926;8.964;2023-04-20T09:00:29;98787.41;;;9.38;71.22
8318;BME280;4196;48.926;8.964;2023-04-20T09:03:16;98782.16;;;9.72;74.44
8318;BME280;4196;48.926;8.964;2023-04-20T09:06:04;98783.81;;;9.85;73.14
8318;BME280;4196;48.926;8.964;2023-04-20T09:08:51;98777.72;;;10.02;68.86
8318;BME280;4196;48.926;8.964;2023-04-20T09:11:38;98777.78;;;9.82;70.02
8318;BME280;4196;48.926;8.964;2023-04-20T09:14:25;98785.41;;;10.17;73.19
8318;BME280;4196;48.926;8.964;2023-04-20T09:17:13;98788.81;;;10.22;69.94
8318;BME280;4196;48.926;8.964;2023-04-20T09:20:00;98760.59;;;9.76;70.22
8318;BME280;4196;48.926;8.964;2023-04-20T09:22:47;98764.91;;;9.70;72.37
8318;BME280;4196;48.926;8.964;2023-04-20T09:25:35;98788.19;;;9.68;72.49
8318;BME280;4196;48.926;8.964;2023-04-20T09:28:22;98765.81;;;9.53;75.63
8318;BME280;4196;48.926;8.964;2023-04-20T09:31:17;98784.72;;;9.74;76.72
8318;BME280;4196;48.926;8.964;2023-04-20T09:34:04;98755.47;;;9.62;76.86
8318;BME280;4196;48.926;8.964;2023-04-20T09:36:51;98706.50;;;9.29;75.68
8318;BME280;4196;48.926;8.964;2023-04-20T09:39:42;98750.28;;;9.64;75.93
8318;BME280;4196;48.926;8.964;2023-04-20T09:42:30;98749.47;;;9.50;74.62
8318;BME280;4196;48.926;8.964;2023-04-20T09:45:18;98771.81;;;9.71;76.00
8318;BME280;4196;48.926;8.964;2023-04-20T09:48:06;98774.47;;;9.54;76.60
8318;BME280;4196;48.926;8.964;2023-04-20T09:50:53;98765.78;;;9.61;78.92
8318;BME280;4196;48.926;8.964;2023-04-20T09:53:40;98733.22;;;9.08;78.11
8318;BME280;4196;48.926;8.964;2023-04-20T09:56:28;98713.44;;;9.01;80.22
8318;BME280;4196;48.926;8.964;2023-04-20T09:59:17;98772.81;;;9.19;80.43
8318;BME280;4196;48.926;8.964;2023-04-20T10:02:07;98763.38;;;9.03;81.41
8318;BME280;4196;48.926;8.964;2023-04-20T10:04:58;98740.13;;;9.10;83.12
8318;BME280;4196;48.926;8.964;2023-04-20T10:07:46;98747.75;;;9.49;82.15
8318;BME280;4196;48.926;8.964;2023-04-20T10:10:47;98727.13;;;9.39;80.35
8318;BME280;4196;48.926;8.964;2023-04-20T10:13:36;98770.13;;;9.62;79.77
8318;BME280;4196;48.926;8.964;2023-04-20T10:16:23;98744.28;;;9.53;79.46
8318;BME280;4196;48.926;8.964;2023-04-20T10:19:11;98738.25;;;9.55;78.03
8318;BME280;4196;48.926;8.964;2023-04-20T10:21:57;98702.94;;;9.53;78.10
8318;BME280;4196;48.926;8.964;2023-04-20T10:24:44;98761.34;;;9.93;75.65
8318;BME280;4196;48.926;8.964;2023-04-20T10:27:31;98754.50;;;9.86;73.20
8318;BME280;4196;48.926;8.964;2023-04-20T10:30:17;98717.63;;;9.51;73.27
8318;BME280;4196;48.926;8.964;2023-04-20T10:33:07;98721.16;;;9.17;73.60
8318;BME280;4196;48.926;8.964;2023-04-20T10:35:54;98747.75;;;9.52;76.20
8318;BME280;4196;48.926;8.964;2023-04-20T10:38:41;98705.66;;;9.16;72.70
8318;BME280;4196;48.926;8.964;2023-04-20T10:41:28;98730.63;;;9.17;72.15
8318;BME280;4196;48.926;8.964;2023-04-20T10:44:14;98701.44;;;8.63;74.76
8318;BME280;4196;48.926;8.964;2023-04-20T10:47:01;98724.59;;;9.19;73.23
8318;BME280;4196;48.926;8.964;2023-04-20T10:49:48;98731.47;;;9.27;71.92
8318;BME280;4196;48.926;8.964;2023-04-20T10:52:35;98721.94;;;9.44;71.75
8318;BME280;4196;48.926;8.964;2023-04-20T10:55:24;98709.03;;;9.36;72.18
8318;BME280;4196;48.926;8.964;2023-04-20T10:58:21;98706.47;;;9.24;72.26
8318;BME280;4196;48.926;8.964;2023-04-20T11:01:08;98666.94;;;9.04;72.92
8318;BME280;4196;48.926;8.964;2023-04-20T11:03:54;98666.94;;;9.04;73.94
8318;BME280;4196;48.926;8.964;2023-04-20T11:06:43;98702.19;;;9.29;76.62
8318;BME280;4196;48.926;8.964;2023-04-20T11:09:30;98699.66;;;9.14;75.73
8318;BME280;4196;48.926;8.964;2023-04-20T11:12:18;98695.28;;;9.36;77.87
8318;BME280;4196;48.926;8.964;2023-04-20T11:15:04;98694.34;;;9.49;76.04
8318;BME280;4196;48.926;8.964;2023-04-20T11:17:51;98688.34;;;9.47;74.16
8318;BME280;4196;48.926;8.964;2023-04-20T11:20:54;98679.63;;;9.63;77.09
8318;BME280;4196;48.926;8.964;2023-04-20T11:23:41;98686.56;;;9.58;75.35
8318;BME280;4196;48.926;8.964;2023-04-20T11:26:36;98687.53;;;9.27;74.59
8318;BME280;4196;48.926;8.964;2023-04-20T11:32:17;98704.00;;;8.78;80.06
8318;BME280;4196;48.926;8.964;2023-04-20T11:35:05;98710.03;;;8.65;83.48
8318;BME280;4196;48.926;8.964;2023-04-20T11:37:53;98706.59;;;8.57;82.58
8318;BME280;4196;48.926;8.964;2023-04-20T11:40:42;98710.88;;;8.27;80.13
8318;BME280;4196;48.926;8.964;2023-04-20T11:43:33;98717.72;;;8.08;80.86
8318;BME280;4196;48.926;8.964;2023-04-20T11:46:19;98701.38;;;8.02;80.31
8318;BME280;4196;48.926;8.964;2023-04-20T11:49:06;98716.84;;;8.06;81.29
8318;BME280;4196;48.926;8.964;2023-04-20T11:51:53;98713.44;;;8.15;81.31
8318;BME280;4196;48.926;8.964;2023-04-20T11:54:40;98714.22;;;7.91;81.62
8318;BME280;4196;48.926;8.964;2023-04-20T11:57:26;98687.53;;;7.55;84.63
8318;BME280;4196;48.926;8.964;2023-04-20T12:00:13;98720.16;;;7.61;87.99
8318;BME280;4196;48.926;8.964;2023-04-20T12:03:00;98720.97;;;7.50;90.40
8318;BME280;4196;48.926;8.964;2023-04-20T12:05:47;98719.13;;;7.25;92.50
8318;BME280;4196;48.926;8.964;2023-04-20T12:08:34;98705.41;;;7.23;94.49
8318;BME280;4196;48.926;8.964;2023-04-20T12:11:21;98721.81;;;7.40;96.47
8318;BME280;4196;48.926;8.964;2023-04-20T12:14:07;98696.09;;;7.53;98.03
8318;BME280;4196;48.926;8.964;2023-04-20T12:16:53;98712.50;;;7.79;90.92
8318;BME280;4196;48.926;8.964;2023-04-20T12:19:43;98711.66;;;7.89;93.62
8318;BME280;4196;48.926;8.964;2023-04-20T12:22:29;98718.53;;;7.84;96.66
8318;BME280;4196;48.926;8.964;2023-04-20T12:25:16;98714.19;;;7.80;99.83
8318;BME280;4196;48.926;8.964;2023-04-20T12:28:02;98692.69;;;7.69;100.00
8318;BME280;4196;48.926;8.964;2023-04-20T12:30:51;98714.19;;;7.72;100.00
8318;BME280;4196;48.926;8.964;2023-04-20T12:33:38;98700.47;;;7.73;100.00
8318;BME280;4196;48.926;8.964;2023-04-20T12:36:24;98703.03;;;7.70;100.00
8318;BME280;4196;48.926;8.964;2023-04-20T12:39:10;98703.84;;;7.56;100.00
8318;BME280;4196;48.926;8.964;2023-04-20T12:41:57;98702.94;;;7.50;100.00
8318;BME280;4196;48.926;8.964;2023-04-20T12:44:43;98693.47;;;7.46;100.00
8318;BME280;4196;48.926;8.964;2023-04-20T12:47:30;98670.28;;;7.39;97.33
8318;BME280;4196;48.926;8.964;2023-04-20T12:50:16;98678.00;;;7.39;98.06
8318;BME280;4196;48.926;8.964;2023-04-20T12:53:03;98679.69;;;7.32;98.12
8318;BME280;4196;48.926;8.964;2023-04-20T12:55:49;98666.69;;;7.05;97.55
8318;BME280;4196;48.926;8.964;2023-04-20T12:58:46;98656.31;;;6.86;100.00
8318;BME280;4196;48.926;8.964;2023-04-20T13:01:32;98634.72;;;6.61;98.52
8318;BME280;4196;48.926;8.964;2023-04-20T13:04:19;98647.66;;;6.75;100.00
8318;BME280;4196;48.926;8.964;2023-04-20T13:07:06;98608.88;;;6.46;98.07
8318;BME280;4196;48.926;8.964;2023-04-20T13:09:53;98657.97;;;6.80;100.00
8318;BME280;4196;48.926;8.964;2023-04-20T13:12:39;98654.50;;;6.73;99.69
8318;BME280;4196;48.926;8.964;2023-04-20T13:15:25;98648.59;;;6.86;100.00
8318;BME280;4196;48.926;8.964;2023-04-20T13:18:24;98640.78;;;6.71;100.00
8318;BME280;4196;48.926;8.964;2023-04-20T13:21:10;98645.94;;;6.71;100.00
8318;BME280;4196;48.926;8.964;2023-04-20T13:23:56;98621.84;;;6.63;100.00
8318;BME280;4196;48.926;8.964;2023-04-20T13:26:43;98678.72;;;7.10;100.00
8318;BME280;4196;48.926;8.964;2023-04-20T13:29:30;98669.31;;;7.14;100.00
8318;BME280;4196;48.926;8.964;2023-04-20T13:32:16;98685.72;;;7.39;100.00
8318;BME280;4196;48.926;8.964;2023-04-20T13:35:02;98661.63;;;7.23;100.00
8318;BME280;4196;48.926;8.964;2023-04-20T13:37:49;98670.22;;;7.28;100.00
8318;BME280;4196;48.926;8.964;2023-04-20T13:40:36;98658.28;;;7.48;100.00
8318;BME280;4196;48.926;8.964;2023-04-20T13:43:22;98649.69;;;7.40;100.00
8318;BME280;4196;48.926;8.964;2023-04-20T13:46:09;98660.00;;;7.40;100.00
8318;BME280;4196;48.926;8.964;2023-04-20T13:48:56;98647.06;;;7.30;100.00
8318;BME280;4196;48.926;8.964;2023-04-20T13:51:42;98664.25;;;7.40;100.00
8318;BME280;4196;48.926;8.964;2023-04-20T13:54:29;98661.69;;;7.38;100.00
8318;BME280;4196;48.926;8.964;2023-04-20T13:57:15;98665.97;;;7.39;100.00
8318;BME280;4196;48.926;8.964;2023-04-20T14:00:02;98666.88;;;7.44;100.00
8318;BME280;4196;48.926;8.964;2023-04-20T14:02:50;98629.88;;;7.27;100.00
8318;BME280;4196;48.926;8.964;2023-04-20T14:05:37;98656.56;;;7.41;100.00
8318;BME280;4196;48.926;8.964;2023-04-20T14:08:24;98651.34;;;7.32;100.00
8318;BME280;4196;48.926;8.964;2023-04-20T14:11:10;98611.81;;;7.15;100.00
8318;BME280;4196;48.926;8.964;2023-04-20T14:13:58;98617.75;;;6.97;100.00
8318;BME280;4196;48.926;8.964;2023-04-20T14:16:46;98661.59;;;7.17;100.00
8318;BME280;4196;48.926;8.964;2023-04-20T14:19:32;98659.88;;;7.16;100.00
8318;BME280;4196;48.926;8.964;2023-04-20T14:22:18;98659.00;;;7.12;100.00
8318;BME280;4196;48.926;8.964;2023-04-20T14:25:05;98650.44;;;7.12;100.00
8318;BME280;4196;48.926;8.964;2023-04-20T14:27:52;98655.63;;;7.29;100.00
8318;BME280;4196;48.926;8.964;2023-04-20T14:30:38;98611.72;;;6.93;100.00
8318;BME280;4196;48.926;8.964;2023-04-20T14:33:25;98647.03;;;7.14;100.00
8318;BME280;4196;48.926;8.964;2023-04-20T14:36:11;98653.91;;;7.18;100.00
8318;BME280;4196;48.926;8.964;2023-04-20T14:38:58;98640.06;;;7.01;100.00
8318;BME280;4196;48.926;8.964;2023-04-20T14:41:44;98660.72;;;7.07;100.00
8318;BME280;4196;48.926;8.964;2023-04-20T14:44:30;98661.53;;;7.00;100.00
8318;BME280;4196;48.926;8.964;2023-04-20T14:47:17;98666.72;;;7.08;100.00
8318;BME280;4196;48.926;8.964;2023-04-20T14:50:04;98664.97;;;7.07;100.00
8318;BME280;4196;48.926;8.964;2023-04-20T14:52:51;98661.47;;;6.89;100.00
8318;BME280;4196;48.926;8.964;2023-04-20T14:55:38;98652.03;;;6.90;100.00
8318;BME280;4196;48.926;8.964;2023-04-20T14:58:24;98649.50;;;6.97;100.00
8318;BME280;4196;48.926;8.964;2023-04-20T15:01:10;98651.16;;;6.86;100.00
8318;BME280;4196;48.926;8.964;2023-04-20T15:03:57;98663.16;;;6.86;100.00
8318;BME280;4196;48.926;8.964;2023-04-20T15:06:43;98658.94;;;6.97;100.00
8318;BME280;4196;48.926;8.964;2023-04-20T15:09:30;98628.75;;;6.70;100.00
8318;BME280;4196;48.926;8.964;2023-04-20T15:12:17;98664.06;;;6.94;100.00
8318;BME280;4196;48.926;8.964;2023-04-20T15:15:04;98664.09;;;6.97;100.00